sensor_id;sensor_type;location;lat;lon;timestamp;temperature;humidity
53294;DHT22;39181;53.440;5.644;2023-06-14T00:00:51;15.50;99.90
53294;DHT22;39181;53.440;5.644;2023-06-14T00:03:18;15.50;99.90
53294;DHT22;39181;53.440;5.644;2023-06-14T00:05:45;15.50;99.90
53294;DHT22;39181;53.440;5.644;2023-06-14T00:08:12;15.50;99.90
53294;DHT22;39181;53.440;5.644;2023-06-14T00:10:38;15.50;99.90
53294;DHT22;39181;53.440;5.644;2023-06-14T00:13:06;15.40;99.90
53294;DHT22;39181;53.440;5.644;2023-06-14T00:15:32;15.50;99.90
53294;DHT22;39181;53.440;5.644;2023-06-14T00:17:58;15.50;99.90
53294;DHT22;39181;53.440;5.644;2023-06-14T00:20:31;15.40;99.90
53294;DHT22;39181;53.440;5.644;2023-06-14T00:22:59;15.40;99.90
53294;DHT22;39181;53.440;5.644;2023-06-14T00:25:25;15.40;99.90
53294;DHT22;39181;53.440;5.644;2023-06-14T00:27:51;15.30;99.90
53294;DHT22;39181;53.440;5.644;2023-06-14T00:30:17;15.30;99.90
53294;DHT22;39181;53.440;5.644;2023-06-14T00:32:44;15.30;99.90
53294;DHT22;39181;53.440;5.644;2023-06-14T00:35:09;15.30;99.90
53294;DHT22;39181;53.440;5.644;2023-06-14T00:37:35;15.40;99.90
53294;DHT22;39181;53.440;5.644;2023-06-14T00:40:01;15.40;99.90
53294;DHT22;39181;53.440;5.644;2023-06-14T00:42:27;15.30;99.90
53294;DHT22;39181;53.440;5.644;2023-06-14T00:44:54;15.30;99.90
53294;DHT22;39181;53.440;5.644;2023-06-14T00:47:19;15.30;99.90
53294;DHT22;39181;53.440;5.644;2023-06-14T00:49:46;15.30;99.90
53294;DHT22;39181;53.440;5.644;2023-06-14T00:52:13;15.30;99.90
53294;DHT22;39181;53.440;5.644;2023-06-14T00:54:40;15.30;99.90
53294;DHT22;39181;53.440;5.644;2023-06-14T00:57:07;15.20;99.90
53294;DHT22;39181;53.440;5.644;2023-06-14T00:59:33;15.20;99.90
53294;DHT22;39181;53.440;5.644;2023-06-14T01:01:59;15.20;99.90
53294;DHT22;39181;53.440;5.644;2023-06-14T01:04:25;15.20;99.90
53294;DHT22;39181;53.440;5.644;2023-06-14T01:07:03;15.20;99.90
53294;DHT22;39181;53.440;5.644;2023-06-14T01:09:49;15.00;99.90
53294;DHT22;39181;53.440;5.644;2023-06-14T01:15:06;15.00;99.90
53294;DHT22;39181;53.440;5.644;2023-06-14T01:17:33;15.00;99.90
53294;DHT22;39181;53.440;5.644;2023-06-14T01:20:01;15.00;99.90
53294;DHT22;39181;53.440;5.644;2023-06-14T01:22:28;15.00;99.90
53294;DHT22;39181;53.440;5.644;2023-06-14T01:24:54;15.00;99.90
53294;DHT22;39181;53.440;5.644;2023-06-14T01:27:24;15.00;99.90
53294;DHT22;39181;53.440;5.644;2023-06-14T01:29:54;15.00;99.90
53294;DHT22;39181;53.440;5.644;2023-06-14T01:32:23;15.10;99.90
53294;DHT22;39181;53.440;5.644;2023-06-14T01:34:49;15.10;99.90
53294;DHT22;39181;53.440;5.644;2023-06-14T01:37:16;15.10;99.90
53294;DHT22;39181;53.440;5.644;2023-06-14T01:39:43;15.10;99.90
53294;DHT22;39181;53.440;5.644;2023-06-14T01:42:11;15.10;99.90
53294;DHT22;39181;53.440;5.644;2023-06-14T01:44:38;15.20;99.90
53294;DHT22;39181;53.440;5.644;2023-06-14T01:47:05;15.20;99.90
53294;DHT22;39181;53.440;5.644;2023-06-14T01:49:36;15.30;99.90
53294;DHT22;39181;53.440;5.644;2023-06-14T01:52:03;15.20;99.90
53294;DHT22;39181;53.440;5.644;2023-06-14T01:54:29;15.20;99.90
53294;DHT22;39181;53.440;5.644;2023-06-14T01:56:56;15.30;99.90
53294;DHT22;39181;53.440;5.644;2023-06-14T01:59:22;15.20;99.90
53294;DHT22;39181;53.440;5.644;2023-06-14T02:01:47;15.20;99.90
53294;DHT22;39181;53.440;5.644;2023-06-14T02:04:13;15.30;99.90
53294;DHT22;39181;53.440;5.644;2023-06-14T02:06:38;15.30;99.90
53294;DHT22;39181;53.440;5.644;2023-06-14T02:09:04;15.20;99.90
53294;DHT22;39181;53.440;5.644;2023-06-14T02:11:29;15.20;99.90
53294;DHT22;39181;53.440;5.644;2023-06-14T02:13:55;15.20;99.90
53294;DHT22;39181;53.440;5.644;2023-06-14T02:16:21;15.20;99.90
53294;DHT22;39181;53.440;5.644;2023-06-14T02:18:47;15.10;99.90
53294;DHT22;39181;53.440;5.644;2023-06-14T02:21:14;15.10;99.90
53294;DHT22;39181;53.440;5.644;2023-06-14T02:23:40;15.00;99.90
53294;DHT22;39181;53.440;5.644;2023-06-14T02:26:05;15.00;99.90
53294;DHT22;39181;53.440;5.644;2023-06-14T02:28:31;14.90;99.90
53294;DHT22;39181;53.440;5.644;2023-06-14T02:30:57;14.90;99.90
53294;DHT22;39181;53.440;5.644;2023-06-14T02:33:22;14.90;99.90
53294;DHT22;39181;53.440;5.644;2023-06-14T02:35:48;14.80;99.90
53294;DHT22;39181;53.440;5.644;2023-06-14T02:38:13;14.80;99.90
53294;DHT22;39181;53.440;5.644;2023-06-14T02:40:39;14.90;99.90
53294;DHT22;39181;53.440;5.644;2023-06-14T02:43:07;14.90;99.90
53294;DHT22;39181;53.440;5.644;2023-06-14T02:45:33;14.90;99.90
53294;DHT22;39181;53.440;5.644;2023-06-14T02:47:58;15.00;99.90
53294;DHT22;39181;53.440;5.644;2023-06-14T02:50:24;15.10;99.90
53294;DHT22;39181;53.440;5.644;2023-06-14T02:52:50;15.10;99.90
53294;DHT22;39181;53.440;5.644;2023-06-14T02:55:15;15.00;99.90
53294;DHT22;39181;53.440;5.644;2023-06-14T02:57:41;15.10;99.90
53294;DHT22;39181;53.440;5.644;2023-06-14T03:00:07;15.10;99.90
53294;DHT22;39181;53.440;5.644;2023-06-14T03:02:35;15.10;99.90
53294;DHT22;39181;53.440;5.644;2023-06-14T03:05:01;15.10;99.90
53294;DHT22;39181;53.440;5.644;2023-06-14T03:07:28;15.10;99.90
53294;DHT22;39181;53.440;5.644;2023-06-14T03:09:55;15.10;99.90
53294;DHT22;39181;53.440;5.644;2023-06-14T03:12:20;15.10;99.90
53294;DHT22;39181;53.440;5.644;2023-06-14T03:14:46;15.20;99.90
53294;DHT22;39181;53.440;5.644;2023-06-14T03:17:12;15.20;99.90
53294;DHT22;39181;53.440;5.644;2023-06-14T03:19:37;15.20;99.90
53294;DHT22;39181;53.440;5.644;2023-06-14T03:22:03;15.10;99.90
53294;DHT22;39181;53.440;5.644;2023-06-14T03:24:29;15.10;99.90
53294;DHT22;39181;53.440;5.644;2023-06-14T03:26:57;15.10;99.90
53294;DHT22;39181;53.440;5.644;2023-06-14T03:29:22;15.10;99.90
53294;DHT22;39181;53.440;5.644;2023-06-14T03:32:02;15.00;99.90
53294;DHT22;39181;53.440;5.644;2023-06-14T03:34:28;15.20;99.90
53294;DHT22;39181;53.440;5.644;2023-06-14T03:36:53;15.10;99.90
53294;DHT22;39181;53.440;5.644;2023-06-14T03:39:19;15.10;99.90
53294;DHT22;39181;53.440;5.644;2023-06-14T03:41:46;15.10;99.90
53294;DHT22;39181;53.440;5.644;2023-06-14T03:44:13;15.30;99.90
53294;DHT22;39181;53.440;5.644;2023-06-14T03:46:39;15.30;99.90
53294;DHT22;39181;53.440;5.644;2023-06-14T03:49:05;15.40;99.90
53294;DHT22;39181;53.440;5.644;2023-06-14T03:51:30;15.40;99.90
53294;DHT22;39181;53.440;5.644;2023-06-14T03:53:56;15.40;99.90
53294;DHT22;39181;53.440;5.644;2023-06-14T03:56:21;15.40;99.90
53294;DHT22;39181;53.440;5.644;2023-06-14T03:58:47;15.30;99.90
53294;DHT22;39181;53.440;5.644;2023-06-14T04:01:13;15.40;99.90
53294;DHT22;39181;53.440;5.644;2023-06-14T04:03:39;15.40;99.90
53294;DHT22;39181;53.440;5.644;2023-06-14T04:06:05;15.40;99.90
53294;DHT22;39181;53.440;5.644;2023-06-14T04:08:31;15.50;99.90
53294;DHT22;39181;53.440;5.644;2023-06-14T04:10:57;15.50;99.90
53294;DHT22;39181;53.440;5.644;2023-06-14T04:13:22;15.60;99.90
53294;DHT22;39181;53.440;5.644;2023-06-14T04:15:48;15.60;99.90
53294;DHT22;39181;53.440;5.644;2023-06-14T04:18:14;15.70;99.90
53294;DHT22;39181;53.440;5.644;2023-06-14T04:20:39;15.70;99.90
53294;DHT22;39181;53.440;5.644;2023-06-14T04:23:16;15.70;99.90
53294;DHT22;39181;53.440;5.644;2023-06-14T04:25:43;15.70;99.90
53294;DHT22;39181;53.440;5.644;2023-06-14T04:28:14;15.80;99.90
53294;DHT22;39181;53.440;5.644;2023-06-14T04:30:41;15.80;99.90
53294;DHT22;39181;53.440;5.644;2023-06-14T04:33:07;15.90;99.90
53294;DHT22;39181;53.440;5.644;2023-06-14T04:35:35;16.00;99.90
53294;DHT22;39181;53.440;5.644;2023-06-14T04:38:01;16.00;99.90
53294;DHT22;39181;53.440;5.644;2023-06-14T04:40:30;16.10;99.90
53294;DHT22;39181;53.440;5.644;2023-06-14T04:42:56;16.00;99.90
53294;DHT22;39181;53.440;5.644;2023-06-14T04:45:22;16.10;99.90
53294;DHT22;39181;53.440;5.644;2023-06-14T04:47:49;16.20;99.90
53294;DHT22;39181;53.440;5.644;2023-06-14T04:50:16;16.20;99.90
53294;DHT22;39181;53.440;5.644;2023-06-14T04:52:43;16.30;99.90
53294;DHT22;39181;53.440;5.644;2023-06-14T04:55:09;16.30;99.90
53294;DHT22;39181;53.440;5.644;2023-06-14T04:57:35;16.40;99.90
53294;DHT22;39181;53.440;5.644;2023-06-14T05:00:01;16.40;99.90
53294;DHT22;39181;53.440;5.644;2023-06-14T05:02:29;16.50;99.90
53294;DHT22;39181;53.440;5.644;2023-06-14T05:04:56;16.60;99.90
53294;DHT22;39181;53.440;5.644;2023-06-14T05:07:22;16.70;99.90
53294;DHT22;39181;53.440;5.644;2023-06-14T05:09:49;16.80;99.90
53294;DHT22;39181;53.440;5.644;2023-06-14T05:12:14;16.90;99.90
53294;DHT22;39181;53.440;5.644;2023-06-14T05:14:43;17.20;99.90
53294;DHT22;39181;53.440;5.644;2023-06-14T05:17:09;17.40;99.90
53294;DHT22;39181;53.440;5.644;2023-06-14T05:19:34;17.70;99.90
53294;DHT22;39181;53.440;5.644;2023-06-14T05:22:00;17.80;99.90
53294;DHT22;39181;53.440;5.644;2023-06-14T05:24:26;17.90;99.90
53294;DHT22;39181;53.440;5.644;2023-06-14T05:26:52;17.90;99.90
53294;DHT22;39181;53.440;5.644;2023-06-14T05:29:17;17.90;99.90
53294;DHT22;39181;53.440;5.644;2023-06-14T05:31:43;17.90;99.90
53294;DHT22;39181;53.440;5.644;2023-06-14T05:34:08;18.00;99.90
53294;DHT22;39181;53.440;5.644;2023-06-14T05:36:34;18.10;99.90
53294;DHT22;39181;53.440;5.644;2023-06-14T05:39:02;18.20;99.90
53294;DHT22;39181;53.440;5.644;2023-06-14T05:41:28;18.20;99.90
53294;DHT22;39181;53.440;5.644;2023-06-14T05:43:55;18.20;99.90
53294;DHT22;39181;53.440;5.644;2023-06-14T05:46:21;18.20;99.90
53294;DHT22;39181;53.440;5.644;2023-06-14T05:48:50;18.30;99.90
53294;DHT22;39181;53.440;5.644;2023-06-14T05:51:15;18.30;99.90
53294;DHT22;39181;53.440;5.644;2023-06-14T05:53:45;18.40;99.90
53294;DHT22;39181;53.440;5.644;2023-06-14T05:56:11;18.50;99.90
53294;DHT22;39181;53.440;5.644;2023-06-14T05:58:36;19.00;99.90
53294;DHT22;39181;53.440;5.644;2023-06-14T06:01:02;19.90;99.90
53294;DHT22;39181;53.440;5.644;2023-06-14T06:03:27;21.10;99.90
53294;DHT22;39181;53.440;5.644;2023-06-14T06:05:54;22.00;99.90
53294;DHT22;39181;53.440;5.644;2023-06-14T06:08:20;22.90;99.90
53294;DHT22;39181;53.440;5.644;2023-06-14T06:10:46;23.40;99.90
53294;DHT22;39181;53.440;5.644;2023-06-14T06:13:11;24.00;99.90
53294;DHT22;39181;53.440;5.644;2023-06-14T06:15:37;23.80;99.90
53294;DHT22;39181;53.440;5.644;2023-06-14T06:18:03;24.10;99.90
53294;DHT22;39181;53.440;5.644;2023-06-14T06:20:29;24.20;99.90
53294;DHT22;39181;53.440;5.644;2023-06-14T06:22:57;24.30;99.90
53294;DHT22;39181;53.440;5.644;2023-06-14T06:25:23;24.50;99.90
53294;DHT22;39181;53.440;5.644;2023-06-14T06:27:55;24.40;99.90
53294;DHT22;39181;53.440;5.644;2023-06-14T06:30:22;24.30;99.90
53294;DHT22;39181;53.440;5.644;2023-06-14T06:32:47;24.50;99.90
53294;DHT22;39181;53.440;5.644;2023-06-14T06:35:13;24.30;99.90
53294;DHT22;39181;53.440;5.644;2023-06-14T06:37:40;24.20;99.90
53294;DHT22;39181;53.440;5.644;2023-06-14T06:40:06;24.40;99.90
53294;DHT22;39181;53.440;5.644;2023-06-14T06:42:33;24.30;99.90
53294;DHT22;39181;53.440;5.644;2023-06-14T06:44:58;24.40;99.90
53294;DHT22;39181;53.440;5.644;2023-06-14T06:47:24;24.20;99.90
53294;DHT22;39181;53.440;5.644;2023-06-14T06:49:50;23.90;99.90
53294;DHT22;39181;53.440;5.644;2023-06-14T06:52:16;23.80;99.90
53294;DHT22;39181;53.440;5.644;2023-06-14T06:54:42;23.80;99.90
53294;DHT22;39181;53.440;5.644;2023-06-14T06:57:07;23.70;99.90
53294;DHT22;39181;53.440;5.644;2023-06-14T06:59:34;23.60;99.90
53294;DHT22;39181;53.440;5.644;2023-06-14T07:01:59;23.70;99.90
53294;DHT22;39181;53.440;5.644;2023-06-14T07:04:25;23.60;99.90
53294;DHT22;39181;53.440;5.644;2023-06-14T07:06:51;23.20;99.90
53294;DHT22;39181;53.440;5.644;2023-06-14T07:09:16;23.00;99.90
53294;DHT22;39181;53.440;5.644;2023-06-14T07:11:46;22.90;99.90
53294;DHT22;39181;53.440;5.644;2023-06-14T07:14:12;22.90;99.90
53294;DHT22;39181;53.440;5.644;2023-06-14T07:16:37;22.90;99.90
53294;DHT22;39181;53.440;5.644;2023-06-14T07:19:03;23.00;99.90
53294;DHT22;39181;53.440;5.644;2023-06-14T07:21:29;22.90;99.90
53294;DHT22;39181;53.440;5.644;2023-06-14T07:23:55;22.80;99.90
53294;DHT22;39181;53.440;5.644;2023-06-14T07:26:21;22.60;99.90
53294;DHT22;39181;53.440;5.644;2023-06-14T07:28:47;22.60;99.90
53294;DHT22;39181;53.440;5.644;2023-06-14T07:31:17;22.60;99.90
53294;DHT22;39181;53.440;5.644;2023-06-14T07:33:44;22.50;99.90
53294;DHT22;39181;53.440;5.644;2023-06-14T07:36:10;22.60;99.90
53294;DHT22;39181;53.440;5.644;2023-06-14T07:38:35;22.60;99.90
53294;DHT22;39181;53.440;5.644;2023-06-14T07:41:02;22.60;99.90
53294;DHT22;39181;53.440;5.644;2023-06-14T07:43:27;22.60;99.90
53294;DHT22;39181;53.440;5.644;2023-06-14T07:45:53;22.70;99.90
53294;DHT22;39181;53.440;5.644;2023-06-14T07:48:18;22.50;99.90
53294;DHT22;39181;53.440;5.644;2023-06-14T07:50:44;22.60;99.90
53294;DHT22;39181;53.440;5.644;2023-06-14T07:53:10;22.80;99.90
53294;DHT22;39181;53.440;5.644;2023-06-14T07:55:36;22.90;99.90
53294;DHT22;39181;53.440;5.644;2023-06-14T07:58:08;22.80;99.90
53294;DHT22;39181;53.440;5.644;2023-06-14T08:00:33;22.80;99.90
53294;DHT22;39181;53.440;5.644;2023-06-14T08:02:59;22.70;99.90
53294;DHT22;39181;53.440;5.644;2023-06-14T08:05:28;22.70;99.90
53294;DHT22;39181;53.440;5.644;2023-06-14T08:07:54;22.80;99.90
53294;DHT22;39181;53.440;5.644;2023-06-14T08:10:20;23.00;99.90
53294;DHT22;39181;53.440;5.644;2023-06-14T08:12:46;23.10;99.90
53294;DHT22;39181;53.440;5.644;2023-06-14T08:15:12;23.10;99.90
53294;DHT22;39181;53.440;5.644;2023-06-14T08:17:37;23.20;99.90
53294;DHT22;39181;53.440;5.644;2023-06-14T08:20:04;23.30;99.90
53294;DHT22;39181;53.440;5.644;2023-06-14T08:22:31;23.10;99.90
53294;DHT22;39181;53.440;5.644;2023-06-14T08:24:59;23.20;99.90
53294;DHT22;39181;53.440;5.644;2023-06-14T08:27:26;23.30;99.90
53294;DHT22;39181;53.440;5.644;2023-06-14T08:29:52;23.40;99.90
53294;DHT22;39181;53.440;5.644;2023-06-14T08:32:17;23.40;99.90
53294;DHT22;39181;53.440;5.644;2023-06-14T08:34:43;23.40;99.90
53294;DHT22;39181;53.440;5.644;2023-06-14T08:37:09;23.60;99.90
53294;DHT22;39181;53.440;5.644;2023-06-14T08:39:34;23.60;99.90
53294;DHT22;39181;53.440;5.644;2023-06-14T08:42:01;23.70;99.90
53294;DHT22;39181;53.440;5.644;2023-06-14T08:44:28;23.70;99.90
53294;DHT22;39181;53.440;5.644;2023-06-14T08:46:56;23.60;99.90
53294;DHT22;39181;53.440;5.644;2023-06-14T08:49:23;23.70;99.90
53294;DHT22;39181;53.440;5.644;2023-06-14T08:51:54;23.80;99.90
53294;DHT22;39181;53.440;5.644;2023-06-14T08:54:23;23.90;99.90
53294;DHT22;39181;53.440;5.644;2023-06-14T08:56:49;23.90;99.90
53294;DHT22;39181;53.440;5.644;2023-06-14T08:59:17;23.90;99.90
53294;DHT22;39181;53.440;5.644;2023-06-14T09:01:45;24.10;99.90
53294;DHT22;39181;53.440;5.644;2023-06-14T09:04:10;24.30;99.90
53294;DHT22;39181;53.440;5.644;2023-06-14T09:06:36;24.30;99.90
53294;DHT22;39181;53.440;5.644;2023-06-14T09:09:02;24.30;99.90
53294;DHT22;39181;53.440;5.644;2023-06-14T09:11:30;24.60;99.90
53294;DHT22;39181;53.440;5.644;2023-06-14T09:13:56;24.80;99.90
53294;DHT22;39181;53.440;5.644;2023-06-14T09:16:21;24.80;99.90
53294;DHT22;39181;53.440;5.644;2023-06-14T09:18:47;24.80;99.90
53294;DHT22;39181;53.440;5.644;2023-06-14T09:21:15;24.70;99.90
53294;DHT22;39181;53.440;5.644;2023-06-14T09:23:42;24.60;99.90
53294;DHT22;39181;53.440;5.644;2023-06-14T09:26:13;24.80;99.90
53294;DHT22;39181;53.440;5.644;2023-06-14T09:28:46;24.90;99.90
53294;DHT22;39181;53.440;5.644;2023-06-14T09:31:13;24.90;99.90
53294;DHT22;39181;53.440;5.644;2023-06-14T09:33:42;24.90;99.90
53294;DHT22;39181;53.440;5.644;2023-06-14T09:36:12;24.90;99.90
53294;DHT22;39181;53.440;5.644;2023-06-14T09:38:40;24.90;99.90
53294;DHT22;39181;53.440;5.644;2023-06-14T09:41:06;24.80;99.90
53294;DHT22;39181;53.440;5.644;2023-06-14T09:43:33;24.80;99.90
53294;DHT22;39181;53.440;5.644;2023-06-14T09:46:03;24.80;99.90
53294;DHT22;39181;53.440;5.644;2023-06-14T09:48:30;24.80;99.90
53294;DHT22;39181;53.440;5.644;2023-06-14T09:50:57;24.70;99.90
53294;DHT22;39181;53.440;5.644;2023-06-14T09:53:24;24.80;99.90
53294;DHT22;39181;53.440;5.644;2023-06-14T09:55:52;24.90;99.90
53294;DHT22;39181;53.440;5.644;2023-06-14T09:58:20;24.90;99.90
53294;DHT22;39181;53.440;5.644;2023-06-14T10:00:50;24.90;99.90
53294;DHT22;39181;53.440;5.644;2023-06-14T10:03:23;25.00;99.90
53294;DHT22;39181;53.440;5.644;2023-06-14T10:05:51;24.90;99.90
53294;DHT22;39181;53.440;5.644;2023-06-14T10:08:19;25.00;99.90
53294;DHT22;39181;53.440;5.644;2023-06-14T10:10:45;24.80;99.90
53294;DHT22;39181;53.440;5.644;2023-06-14T10:13:12;24.70;99.90
53294;DHT22;39181;53.440;5.644;2023-06-14T10:15:43;24.60;99.90
53294;DHT22;39181;53.440;5.644;2023-06-14T10:18:19;24.60;99.90
53294;DHT22;39181;53.440;5.644;2023-06-14T10:23:46;24.10;99.90
53294;DHT22;39181;53.440;5.644;2023-06-14T10:26:23;24.30;99.90
53294;DHT22;39181;53.440;5.644;2023-06-14T10:29:00;24.40;99.90
53294;DHT22;39181;53.440;5.644;2023-06-14T10:31:49;24.20;99.90
53294;DHT22;39181;53.440;5.644;2023-06-14T10:34:23;24.20;99.90
53294;DHT22;39181;53.440;5.644;2023-06-14T10:37:00;24.30;99.90
53294;DHT22;39181;53.440;5.644;2023-06-14T10:39:27;24.20;99.90
53294;DHT22;39181;53.440;5.644;2023-06-14T10:41:54;24.10;99.90
53294;DHT22;39181;53.440;5.644;2023-06-14T10:46:47;23.90;99.90
53294;DHT22;39181;53.440;5.644;2023-06-14T10:49:16;23.90;99.90
53294;DHT22;39181;53.440;5.644;2023-06-14T10:51:45;23.80;99.90
53294;DHT22;39181;53.440;5.644;2023-06-14T10:54:14;23.60;99.90
53294;DHT22;39181;53.440;5.644;2023-06-14T10:56:47;23.50;99.90
53294;DHT22;39181;53.440;5.644;2023-06-14T10:59:14;23.70;99.90
53294;DHT22;39181;53.440;5.644;2023-06-14T11:02:04;23.80;99.90
53294;DHT22;39181;53.440;5.644;2023-06-14T11:04:49;23.70;99.90
53294;DHT22;39181;53.440;5.644;2023-06-14T11:12:47;24.10;99.90
53294;DHT22;39181;53.440;5.644;2023-06-14T11:15:14;24.00;99.90
53294;DHT22;39181;53.440;5.644;2023-06-14T11:17:39;24.00;99.90
53294;DHT22;39181;53.440;5.644;2023-06-14T11:20:12;24.10;99.90
53294;DHT22;39181;53.440;5.644;2023-06-14T11:22:42;24.10;99.90
53294;DHT22;39181;53.440;5.644;2023-06-14T11:25:14;24.00;99.90
53294;DHT22;39181;53.440;5.644;2023-06-14T11:27:42;23.80;99.90
53294;DHT22;39181;53.440;5.644;2023-06-14T11:30:08;23.90;99.90
53294;DHT22;39181;53.440;5.644;2023-06-14T11:32:38;24.00;99.90
53294;DHT22;39181;53.440;5.644;2023-06-14T11:35:04;23.80;99.90
53294;DHT22;39181;53.440;5.644;2023-06-14T11:37:32;23.70;99.90
53294;DHT22;39181;53.440;5.644;2023-06-14T11:39:59;23.70;99.90
53294;DHT22;39181;53.440;5.644;2023-06-14T11:42:27;23.60;99.90
53294;DHT22;39181;53.440;5.644;2023-06-14T11:44:53;23.40;99.90
53294;DHT22;39181;53.440;5.644;2023-06-14T11:47:19;23.80;99.90
53294;DHT22;39181;53.440;5.644;2023-06-14T11:49:46;23.40;99.90
53294;DHT22;39181;53.440;5.644;2023-06-14T11:52:12;23.50;99.90
53294;DHT22;39181;53.440;5.644;2023-06-14T11:54:37;23.50;99.90
53294;DHT22;39181;53.440;5.644;2023-06-14T11:57:04;23.60;99.90
53294;DHT22;39181;53.440;5.644;2023-06-14T11:59:30;23.40;99.90
53294;DHT22;39181;53.440;5.644;2023-06-14T12:01:56;23.40;99.90
53294;DHT22;39181;53.440;5.644;2023-06-14T12:04:29;23.40;99.90
53294;DHT22;39181;53.440;5.644;2023-06-14T12:06:55;23.10;99.90
53294;DHT22;39181;53.440;5.644;2023-06-14T12:09:23;22.80;99.90
53294;DHT22;39181;53.440;5.644;2023-06-14T12:11:49;22.90;99.90
53294;DHT22;39181;53.440;5.644;2023-06-14T12:14:15;22.90;99.90
53294;DHT22;39181;53.440;5.644;2023-06-14T12:16:42;22.70;99.90
53294;DHT22;39181;53.440;5.644;2023-06-14T12:19:11;22.70;99.90
53294;DHT22;39181;53.440;5.644;2023-06-14T12:21:38;22.80;99.90
53294;DHT22;39181;53.440;5.644;2023-06-14T12:24:06;22.70;99.90
53294;DHT22;39181;53.440;5.644;2023-06-14T12:26:32;22.70;99.90
53294;DHT22;39181;53.440;5.644;2023-06-14T12:28:58;22.60;99.90
53294;DHT22;39181;53.440;5.644;2023-06-14T12:31:24;22.50;99.90
53294;DHT22;39181;53.440;5.644;2023-06-14T12:33:50;22.50;99.90
53294;DHT22;39181;53.440;5.644;2023-06-14T12:36:16;22.50;99.90
53294;DHT22;39181;53.440;5.644;2023-06-14T12:38:42;22.50;99.90
53294;DHT22;39181;53.440;5.644;2023-06-14T12:41:08;22.60;99.90
53294;DHT22;39181;53.440;5.644;2023-06-14T12:43:34;22.60;99.90
53294;DHT22;39181;53.440;5.644;2023-06-14T12:46:00;22.50;99.90
53294;DHT22;39181;53.440;5.644;2023-06-14T12:48:26;22.30;99.90
53294;DHT22;39181;53.440;5.644;2023-06-14T12:50:57;22.30;99.90
53294;DHT22;39181;53.440;5.644;2023-06-14T12:53:23;22.50;99.90
53294;DHT22;39181;53.440;5.644;2023-06-14T12:55:49;22.40;99.90
53294;DHT22;39181;53.440;5.644;2023-06-14T12:58:14;22.40;99.90
53294;DHT22;39181;53.440;5.644;2023-06-14T13:00:42;22.20;99.90
53294;DHT22;39181;53.440;5.644;2023-06-14T13:03:09;22.20;99.90
53294;DHT22;39181;53.440;5.644;2023-06-14T13:05:35;22.00;99.90
53294;DHT22;39181;53.440;5.644;2023-06-14T13:08:01;22.10;99.90
53294;DHT22;39181;53.440;5.644;2023-06-14T13:10:26;22.20;99.90
53294;DHT22;39181;53.440;5.644;2023-06-14T13:12:52;22.10;99.90
53294;DHT22;39181;53.440;5.644;2023-06-14T13:15:18;22.10;99.90
53294;DHT22;39181;53.440;5.644;2023-06-14T13:17:44;22.10;99.90
53294;DHT22;39181;53.440;5.644;2023-06-14T13:20:14;22.00;99.90
53294;DHT22;39181;53.440;5.644;2023-06-14T13:22:39;22.00;99.90
53294;DHT22;39181;53.440;5.644;2023-06-14T13:25:06;22.00;99.90
53294;DHT22;39181;53.440;5.644;2023-06-14T13:27:31;22.00;99.90
53294;DHT22;39181;53.440;5.644;2023-06-14T13:29:57;22.00;99.90
53294;DHT22;39181;53.440;5.644;2023-06-14T13:32:23;22.00;99.90
53294;DHT22;39181;53.440;5.644;2023-06-14T13:34:49;22.10;99.90
53294;DHT22;39181;53.440;5.644;2023-06-14T13:37:15;22.00;99.90
53294;DHT22;39181;53.440;5.644;2023-06-14T13:39:40;21.80;99.90
53294;DHT22;39181;53.440;5.644;2023-06-14T13:42:06;21.80;99.90
53294;DHT22;39181;53.440;5.644;2023-06-14T13:44:32;21.60;99.90
53294;DHT22;39181;53.440;5.644;2023-06-14T13:46:57;21.90;99.90
53294;DHT22;39181;53.440;5.644;2023-06-14T13:49:23;21.70;99.90
53294;DHT22;39181;53.440;5.644;2023-06-14T13:51:48;21.70;99.90
53294;DHT22;39181;53.440;5.644;2023-06-14T13:54:14;21.70;99.90
53294;DHT22;39181;53.440;5.644;2023-06-14T13:56:44;21.60;99.90
53294;DHT22;39181;53.440;5.644;2023-06-14T13:59:09;21.70;99.90
53294;DHT22;39181;53.440;5.644;2023-06-14T14:01:36;21.70;99.90
53294;DHT22;39181;53.440;5.644;2023-06-14T14:04:01;21.80;99.90
53294;DHT22;39181;53.440;5.644;2023-06-14T14:06:27;21.70;99.90
53294;DHT22;39181;53.440;5.644;2023-06-14T14:08:53;21.70;99.90
53294;DHT22;39181;53.440;5.644;2023-06-14T14:11:19;21.60;99.90
53294;DHT22;39181;53.440;5.644;2023-06-14T14:13:45;21.40;99.90
53294;DHT22;39181;53.440;5.644;2023-06-14T14:16:12;21.50;99.90
53294;DHT22;39181;53.440;5.644;2023-06-14T14:18:38;21.40;99.90
53294;DHT22;39181;53.440;5.644;2023-06-14T14:21:04;21.60;99.90
53294;DHT22;39181;53.440;5.644;2023-06-14T14:23:30;21.60;99.90
53294;DHT22;39181;53.440;5.644;2023-06-14T14:25:56;21.60;99.90
53294;DHT22;39181;53.440;5.644;2023-06-14T14:28:22;21.50;99.90
53294;DHT22;39181;53.440;5.644;2023-06-14T14:30:47;21.50;99.90
53294;DHT22;39181;53.440;5.644;2023-06-14T14:33:14;21.40;99.90
53294;DHT22;39181;53.440;5.644;2023-06-14T14:35:44;21.50;99.90
53294;DHT22;39181;53.440;5.644;2023-06-14T14:38:12;21.50;99.90
53294;DHT22;39181;53.440;5.644;2023-06-14T14:40:38;21.10;99.90
53294;DHT22;39181;53.440;5.644;2023-06-14T14:43:04;21.30;99.90
53294;DHT22;39181;53.440;5.644;2023-06-14T14:45:30;21.10;99.90
53294;DHT22;39181;53.440;5.644;2023-06-14T14:47:55;21.20;99.90
53294;DHT22;39181;53.440;5.644;2023-06-14T14:50:21;21.20;99.90
53294;DHT22;39181;53.440;5.644;2023-06-14T14:52:47;21.20;99.90
53294;DHT22;39181;53.440;5.644;2023-06-14T14:55:12;21.40;99.90
53294;DHT22;39181;53.440;5.644;2023-06-14T14:57:38;21.20;99.90
53294;DHT22;39181;53.440;5.644;2023-06-14T15:00:05;21.40;99.90
53294;DHT22;39181;53.440;5.644;2023-06-14T15:02:31;21.30;99.90
53294;DHT22;39181;53.440;5.644;2023-06-14T15:04:57;21.20;99.90
53294;DHT22;39181;53.440;5.644;2023-06-14T15:07:30;21.20;99.90
53294;DHT22;39181;53.440;5.644;2023-06-14T15:09:56;21.20;99.90
53294;DHT22;39181;53.440;5.644;2023-06-14T15:12:22;21.10;99.90
53294;DHT22;39181;53.440;5.644;2023-06-14T15:14:51;20.90;99.90
53294;DHT22;39181;53.440;5.644;2023-06-14T15:17:18;21.00;99.90
53294;DHT22;39181;53.440;5.644;2023-06-14T15:19:45;21.00;99.90
53294;DHT22;39181;53.440;5.644;2023-06-14T15:22:11;20.90;99.90
53294;DHT22;39181;53.440;5.644;2023-06-14T15:24:36;21.00;99.90
53294;DHT22;39181;53.440;5.644;2023-06-14T15:27:02;20.80;99.90
53294;DHT22;39181;53.440;5.644;2023-06-14T15:29:28;20.90;99.90
53294;DHT22;39181;53.440;5.644;2023-06-14T15:31:53;20.80;99.90
53294;DHT22;39181;53.440;5.644;2023-06-14T15:34:20;20.90;99.90
53294;DHT22;39181;53.440;5.644;2023-06-14T15:36:46;20.70;99.90
53294;DHT22;39181;53.440;5.644;2023-06-14T15:39:11;20.80;99.90
53294;DHT22;39181;53.440;5.644;2023-06-14T15:41:37;20.60;99.90